• Join FlightAware (Why Join?)
  • Login
  • US Flag 
08:27PM EDT


 

Airport Tracker/Info


-or-


 

Live Flight TrackerFlight Track Log ✈ VH-WSF ✈ 26-Aug-2013 ✈ YLGB - YBRM / BME

Flight Track Log - Related Links

Times and Time Zones

All times are in EDT time to prevent confusion due to time zone crossing. See the VH-WSF flight status page for this flight to view local times or setup timezone preferences in your user account.

Time Position Orientation Groundspeed Altitude Reporting Facility
EDT Latitude Longitude Course Direction KTS MPH feet Rate Location/Type
04:15AM -18.6373 121.8351 360° North 100  Level Aus ATC (Calculated)
04:16AM -18.6373 121.8351 29° Northeast 400 360 Climbing Aus ATC (Calculated)
04:18AM -18.5837 121.8663 29° Northeast  Level FlightAware Approximate
04:19AM -18.5532 121.8841 29° Northeast  Level FlightAware Approximate
04:19AM -18.5514 121.8844 29° Northeast 100  Level Aus ATC (Calculated)
04:21AM -18.4979 121.9155 29° Northeast  Level FlightAware Approximate
04:21AM -18.4758 121.9284 360° North 400  Level Aus ATC (Calculated)
04:21AM -18.4758 121.9284 29° Northeast 400  Level Aus ATC (Calculated)
04:23AM -18.4355 121.9518 29° Northeast  Level FlightAware Approximate
04:24AM -18.4049 121.9696 29° Northeast  Level FlightAware Approximate
04:25AM -18.3743 121.9874 29° Northeast  Level FlightAware Approximate
04:26AM -18.3437 122.0051 29° Northeast  Level FlightAware Approximate
04:27AM -18.3131 122.0229 29° Northeast  Level FlightAware Approximate
04:28AM -18.2825 122.0407 29° Northeast  Level FlightAware Approximate
04:29AM -18.2519 122.0584 29° Northeast  Level FlightAware Approximate
04:30AM -18.2213 122.0762 29° Northeast  Level FlightAware Approximate
04:31AM -18.1907 122.0939 29° Northeast  Level FlightAware Approximate
04:32AM -18.1601 122.1116 29° Northeast  Level FlightAware Approximate
04:33AM -18.1295 122.1294 29° Northeast  Level FlightAware Approximate
04:34AM -18.0976 122.1446 29° Northeast  Level Estimated
04:35AM -18.0669 122.1621 29° Northeast  Level Estimated
04:36AM -18.0361 122.1796 29° Northeast  Level Estimated
04:37AM -18.0054 122.1971 29° Northeast  Level Estimated
04:38AM -17.9747 122.2146 29° Northeast  Level Estimated
04:39AM -17.9463 122.2353 29° Northeast  Level FlightAware Approximate
04:40AM -17.9447 122.2317 29° Northeast  Level Estimated
04:41AM -17.9463 122.2353 29° Northeast  Level FlightAware Approximate
04:42AM -17.9447 122.2317 29° Northeast  Level Estimated
04:43AM -17.9463 122.2353 29° Northeast  Level FlightAware Approximate
04:44AM -17.9447 122.2317 29° Northeast  Level Estimated
04:45AM -17.9463 122.2353 29° Northeast  Level FlightAware Approximate
04:46AM -17.9447 122.2317 29° Northeast  Level Estimated
04:47AM -17.9463 122.2353 29° Northeast  Level FlightAware Approximate
04:48AM -17.9447 122.2317 29° Northeast  Level Estimated
04:49AM -17.9463 122.2353 29° Northeast  Level FlightAware Approximate
04:50AM -17.9447 122.2317 29° Northeast  Level Estimated
04:51AM -17.9463 122.2353 29° Northeast  Level FlightAware Approximate
04:52AM -17.9447 122.2317 29° Northeast  Level Estimated
04:53AM -17.9463 122.2353 29° Northeast  Level FlightAware Approximate
04:54AM -17.9447 122.2317 29° Northeast  Level Estimated